Hartford, Connecticut
Traffic Map
Current Weather Conditions
Hartford, Connecticut
Clear
Clear
-4°
Feels Like: -23°
Wind Chill: -23° Ceiling: Unl
Heat Index: -4° Visibility: 10mi
Dew Point: -23° Wind: 13mph
Humidity: 40% Direction: 320° (NW)
Pressure: 30.31in Gusts: 0mph
Raw Report DataKHFD 140553Z AUTO 32011KT 10SM CLR M20/M31 A3031 RMK AO2 SLP264 T12001306 11161 21200 53017
Traffic Incident Summary
Active as of:
Severity:
Category:
InformationThere was an issue retrieving the traffic information for this location. Please try a different location or try again shortly.
Advertisements
Track Severe Weather on mobile